Time;durP1;ratioP1;P1;durP2;ratioP2;P2;SDS_P1;SDS_P2;PMS_P1;PMS_P2;Temp;Humidity;BMP_temperature;BMP_pressure;BME280_temperature;BME280_humidity;BME280_pressure;Samples;Min_cycle;Max_cycle;Signal;HPM_P1;HPM_P2
2022/08/03 00:00:06;;;;;;;7.25;1.75;;;23.20;76.70;;;;;;4992478;28;20121;-79
2022/08/03 00:02:31;;;;;;;7.22;2.05;;;23.10;76.70;;;;;;4974354;28;20034;-80
2022/08/03 00:04:58;;;;;;;9.55;2.30;;;23.10;76.70;;;;;;4991741;28;20033;-80
2022/08/03 00:07:23;;;;;;;4.75;1.67;;;23.10;76.70;;;;;;4991912;28;20022;-80
2022/08/03 00:09:49;;;;;;;6.53;1.95;;;23.00;77.00;;;;;;4989383;28;20168;-79
2022/08/03 00:12:15;;;;;;;10.85;2.67;;;23.00;77.30;;;;;;4974747;28;20026;-79
2022/08/03 00:14:41;;;;;;;9.73;1.77;;;23.00;77.60;;;;;;4995210;28;20042;-79
2022/08/03 00:17:06;;;;;;;8.50;2.10;;;22.90;77.80;;;;;;4960707;28;20058;-80
2022/08/03 00:19:32;;;;;;;6.65;2.17;;;22.90;78.00;;;;;;4994384;28;20424;-80
2022/08/03 00:21:58;;;;;;;7.28;2.05;;;22.90;78.20;;;;;;4994978;28;20101;-80
2022/08/03 00:24:23;;;;;;;5.68;1.73;;;22.90;78.40;;;;;;4994669;28;20084;-80
2022/08/03 00:26:49;;;;;;;7.13;2.10;;;22.80;78.40;;;;;;4986260;28;20019;-80
2022/08/03 00:29:15;;;;;;;7.13;2.53;;;22.80;78.50;;;;;;4974646;28;20018;-80
2022/08/03 00:31:41;;;;;;;8.98;2.50;;;22.80;78.60;;;;;;4986102;28;20029;-80
2022/08/03 00:34:06;;;;;;;8.35;2.22;;;22.70;78.70;;;;;;4995206;28;20026;-80
2022/08/03 00:36:32;;;;;;;5.65;2.15;;;22.70;78.80;;;;;;4995435;28;20033;-79
2022/08/03 00:38:58;;;;;;;8.07;2.67;;;22.70;79.00;;;;;;4993298;28;20499;-80
2022/08/03 00:41:23;;;;;;;11.13;3.33;;;22.60;79.10;;;;;;4993789;28;20027;-79
2022/08/03 00:43:49;;;;;;;7.93;2.30;;;22.60;79.50;;;;;;4993615;28;20026;-79
2022/08/03 00:46:15;;;;;;;7.65;2.47;;;22.60;79.50;;;;;;4993025;28;20109;-78
2022/08/03 00:48:41;;;;;;;9.05;2.45;;;22.60;79.70;;;;;;4993311;28;20022;-78
2022/08/03 00:51:08;;;;;;;8.52;2.47;;;22.50;79.80;;;;;;4975786;28;20026;-79
2022/08/03 00:53:35;;;;;;;5.05;1.70;;;22.50;80.00;;;;;;4992454;28;20404;-79
2022/08/03 00:56:01;;;;;;;6.22;2.15;;;22.50;78.40;;;;;;4993103;28;20023;-79
2022/08/03 00:58:27;;;;;;;7.10;2.60;;;22.40;79.30;;;;;;4993347;28;20029;-78
2022/08/03 01:00:52;;;;;;;8.60;2.58;;;22.40;79.50;;;;;;4989770;28;20219;-78
2022/08/03 01:03:18;;;;;;;5.30;1.88;;;22.40;80.00;;;;;;4991784;28;20058;-79
2022/08/03 01:06:05;;;;;;;4.50;2.20;;;22.40;80.40;;;;;;4991835;28;20027;-78
2022/08/03 01:09:14;;;;;;;6.72;2.78;;;22.30;80.70;;;;;;4992312;28;20557;-79
2022/08/03 01:11:49;;;;;;;8.32;2.75;;;22.30;80.70;;;;;;4963187;28;20034;-78
2022/08/03 01:14:23;;;;;;;7.78;2.75;;;22.30;80.90;;;;;;4973447;28;20039;-80
2022/08/03 01:17:42;;;;;;;9.88;2.78;;;22.30;81.10;;;;;;4983246;28;20022;-80
2022/08/03 01:20:17;;;;;;;11.75;2.85;;;22.20;81.20;;;;;;4929023;29;20025;-79
2022/08/03 01:22:57;;;;;;;7.70;2.50;;;22.20;81.40;;;;;;4915644;29;20035;-80
2022/08/03 01:25:27;;;;;;;;;;;22.20;81.40;;;;;;4952577;28;20070;-79
2022/08/03 01:27:55;;;;;;;10.02;2.63;;;22.20;81.50;;;;;;4976400;28;20323;-78
2022/08/03 01:30:30;;;;;;;9.30;3.00;;;22.10;81.80;;;;;;4980652;28;20026;-80
2022/08/03 01:33:20;;;;;;;8.48;2.67;;;22.10;82.20;;;;;;4983705;28;20026;-79
2022/08/03 01:35:53;;;;;;;9.95;2.42;;;22.00;82.30;;;;;;5002122;28;20027;-79
2022/08/03 01:38:25;;;;;;;6.13;2.38;;;22.00;82.50;;;;;;4994643;28;20023;-79
2022/08/03 01:40:55;;;;;;;8.10;2.80;;;22.00;82.80;;;;;;4993297;28;20065;-80
2022/08/03 01:43:28;;;;;;;12.45;3.20;;;21.90;83.00;;;;;;4992599;28;20029;-80
2022/08/03 01:45:56;;;;;;;11.02;3.42;;;21.90;83.70;;;;;;4991820;28;20018;-80
2022/08/03 01:48:23;;;;;;;14.60;3.10;;;21.90;83.20;;;;;;4980836;28;20029;-80
2022/08/03 01:50:50;;;;;;;9.35;2.65;;;21.90;83.40;;;;;;4992264;28;20470;-80
2022/08/03 01:53:17;;;;;;;6.50;2.30;;;21.90;83.40;;;;;;4992273;28;20050;-80
2022/08/03 01:55:54;;;;;;;8.85;3.00;;;21.90;83.30;;;;;;4993775;28;20144;-79
2022/08/03 01:58:23;;;;;;;10.55;3.08;;;21.80;83.40;;;;;;4994442;28;20496;-80
2022/08/03 02:00:50;;;;;;;6.50;3.00;;;21.90;83.40;;;;;;4988721;28;20022;-80
2022/08/03 02:03:17;;;;;;;8.57;2.33;;;21.90;83.40;;;;;;4991809;28;20057;-80
2022/08/03 02:05:45;;;;;;;6.93;2.38;;;21.80;83.50;;;;;;4987297;28;20027;-80
2022/08/03 02:08:12;;;;;;;11.50;3.03;;;21.80;83.50;;;;;;4972702;28;20027;-80
2022/08/03 02:10:40;;;;;;;10.68;3.00;;;21.80;83.60;;;;;;4972631;28;20027;-80
2022/08/03 02:13:07;;;;;;;9.32;2.50;;;21.80;83.60;;;;;;4973814;28;20116;-80
2022/08/03 02:15:34;;;;;;;8.23;2.72;;;21.80;83.60;;;;;;4973792;28;20030;-80
2022/08/03 02:18:03;;;;;;;11.05;3.00;;;21.80;83.60;;;;;;4983472;28;20018;-80
2022/08/03 02:20:31;;;;;;;8.95;2.75;;;21.80;83.70;;;;;;4985497;28;20113;-80
2022/08/03 02:22:58;;;;;;;12.98;5.80;;;21.70;83.80;;;;;;4987988;28;20433;-79
2022/08/03 02:25:24;;;;;;;7.70;2.90;;;21.70;83.90;;;;;;4993668;28;20084;-80
2022/08/03 02:28:05;;;;;;;8.60;2.85;;;21.70;84.10;;;;;;4993797;28;20023;-79
2022/08/03 02:30:38;;;;;;;7.40;2.78;;;21.70;84.10;;;;;;4990307;28;20037;-80
2022/08/03 02:33:09;;;;;;;9.10;3.92;;;21.70;84.30;;;;;;4969038;28;20030;-80
2022/08/03 02:35:42;;;;;;;7.90;2.50;;;21.60;84.20;;;;;;4989283;28;20092;-80
2022/08/03 02:38:10;;;;;;;9.48;2.88;;;21.60;84.50;;;;;;4974880;28;20026;-80
2022/08/03 02:40:37;;;;;;;8.65;3.13;;;21.60;84.50;;;;;;4990728;28;20408;-80
2022/08/03 02:43:07;;;;;;;8.75;2.72;;;21.60;84.70;;;;;;4990822;28;20073;-80
2022/08/03 02:45:38;;;;;;;7.20;3.00;;;21.60;84.50;;;;;;4990899;28;20504;-80
2022/08/03 02:48:05;;;;;;;9.32;2.88;;;21.60;84.50;;;;;;4991375;28;20037;-79
2022/08/03 02:50:33;;;;;;;8.30;3.00;;;21.60;84.50;;;;;;4973979;28;20759;-80
2022/08/03 02:53:01;;;;;;;9.68;3.25;;;21.60;84.70;;;;;;4981722;28;20026;-79
2022/08/03 02:55:28;;;;;;;6.43;3.30;;;21.60;84.70;;;;;;4990589;28;20037;-80
2022/08/03 02:57:55;;;;;;;7.93;2.83;;;21.60;84.80;;;;;;4991604;28;20034;-80
2022/08/03 03:00:22;;;;;;;6.90;2.67;;;21.60;84.80;;;;;;4989035;28;20074;-80
2022/08/03 03:02:48;;;;;;;11.00;3.20;;;21.60;84.80;;;;;;4990816;28;20046;-80
2022/08/03 03:05:14;;;;;;;6.72;2.95;;;21.60;84.90;;;;;;4990998;28;20032;-81
2022/08/03 03:07:41;;;;;;;7.93;2.70;;;21.60;85.00;;;;;;4991043;28;20062;-80
2022/08/03 03:10:08;;;;;;;4.70;2.00;;;21.60;85.10;;;;;;4990170;28;20026;-80
2022/08/03 03:12:35;;;;;;;9.98;3.58;;;21.50;84.60;;;;;;4990393;28;20374;-81
2022/08/03 03:15:05;;;;;;;8.02;2.53;;;21.50;84.80;;;;;;4986615;28;20085;-80
2022/08/03 03:17:31;;;;;;;9.52;3.55;;;21.50;85.10;;;;;;4989525;28;20026;-81
2022/08/03 03:19:58;;;;;;;8.18;3.45;;;21.50;85.00;;;;;;4972653;28;20026;-80
2022/08/03 03:22:24;;;;;;;10.48;3.05;;;21.40;85.30;;;;;;4986615;28;20140;-80
2022/08/03 03:24:51;;;;;;;9.68;2.50;;;21.40;85.20;;;;;;4990254;28;20117;-80
2022/08/03 03:27:17;;;;;;;7.57;2.78;;;21.40;85.10;;;;;;4989896;28;20037;-80
2022/08/03 03:29:43;;;;;;;8.15;3.35;;;21.40;85.00;;;;;;4990450;28;20030;-80
2022/08/03 03:32:09;;;;;;;9.13;3.17;;;21.40;85.10;;;;;;4989959;28;20120;-80
2022/08/03 03:34:36;;;;;;;8.52;3.60;;;21.40;85.10;;;;;;4990305;28;20038;-79
2022/08/03 03:37:01;;;;;;;7.78;2.97;;;21.40;85.10;;;;;;4966416;28;20035;-80
2022/08/03 03:39:27;;;;;;;13.43;3.70;;;21.40;85.20;;;;;;4976462;28;20022;-80
2022/08/03 03:41:53;;;;;;;8.63;3.22;;;21.30;85.30;;;;;;4990230;28;20034;-80
2022/08/03 03:44:19;;;;;;;12.32;3.50;;;21.30;85.30;;;;;;4991946;28;20027;-80
2022/08/03 03:46:46;;;;;;;10.60;3.75;;;21.30;85.40;;;;;;4994889;28;20018;-79
2022/08/03 03:49:11;;;;;;;12.00;3.72;;;21.30;85.40;;;;;;4975354;28;20019;-80
2022/08/03 03:51:37;;;;;;;10.43;3.58;;;21.30;85.50;;;;;;4989997;28;20089;-79
2022/08/03 03:54:06;;;;;;;9.15;3.22;;;21.30;85.60;;;;;;4990337;28;20477;-80
2022/08/03 03:56:32;;;;;;;12.52;4.28;;;21.30;85.50;;;;;;4990409;28;20118;-80
2022/08/03 03:58:58;;;;;;;10.02;3.13;;;21.30;85.70;;;;;;4990701;28;20101;-80
2022/08/03 04:01:24;;;;;;;11.68;3.85;;;21.20;86.00;;;;;;4988359;28;20116;-80
2022/08/03 04:03:50;;;;;;;9.23;3.97;;;21.20;86.10;;;;;;4987154;28;20065;-79
2022/08/03 04:11:59;;;;;;;14.25;5.72;;;21.20;87.10;;;;;;4990399;28;20108;-81
2022/08/03 04:14:31;;;;;;;11.77;5.45;;;21.20;87.30;;;;;;4990148;28;20504;-79
2022/08/03 04:17:06;;;;;;;15.27;4.18;;;21.20;87.50;;;;;;4986145;28;20038;-79
2022/08/03 04:19:40;;;;;;;9.10;4.07;;;21.20;87.70;;;;;;4956344;28;20027;-81
2022/08/03 04:22:10;;;;;;;12.07;5.13;;;21.20;87.60;;;;;;4992268;28;20034;-80
2022/08/03 04:24:47;;;;;;;9.73;4.97;;;21.20;87.80;;;;;;4992159;28;20031;-80
2022/08/03 04:27:15;;;;;;;8.40;4.40;;;21.20;87.80;;;;;;4990474;28;20061;-80
2022/08/03 04:29:46;;;;;;;8.98;4.05;;;21.20;87.80;;;;;;4990675;28;20027;-81
2022/08/03 04:32:13;;;;;;;11.73;4.90;;;21.20;88.00;;;;;;4991130;28;20474;-80
2022/08/03 04:34:39;;;;;;;12.00;5.68;;;21.30;88.00;;;;;;4990372;28;20034;-80
2022/08/03 04:37:11;;;;;;;12.23;4.53;;;21.30;87.50;;;;;;4990145;28;20201;-79
2022/08/03 04:39:40;;;;;;;12.90;4.85;;;21.30;87.70;;;;;;4989844;28;20092;-80
2022/08/03 04:42:07;;;;;;;11.23;5.00;;;21.30;87.50;;;;;;4989085;28;20018;-81
2022/08/03 04:44:44;;;;;;;9.85;4.72;;;21.30;87.80;;;;;;4970889;28;20081;-82
2022/08/03 04:47:10;;;;;;;16.88;5.55;;;21.30;87.90;;;;;;4982673;28;20033;-80
2022/08/03 04:49:37;;;;;;;11.65;5.40;;;21.40;88.00;;;;;;4971490;28;20034;-80
2022/08/03 04:52:03;;;;;;;13.02;5.50;;;21.40;88.20;;;;;;4989499;28;20022;-81
2022/08/03 04:54:30;;;;;;;11.60;5.15;;;21.40;88.00;;;;;;4989526;28;20090;-80
2022/08/03 04:56:55;;;;;;;10.50;5.70;;;21.40;88.10;;;;;;4989422;28;20027;-80
2022/08/03 04:59:21;;;;;;;10.75;5.75;;;21.50;88.10;;;;;;4990519;28;20084;-80
2022/08/03 05:01:48;;;;;;;17.63;6.78;;;21.50;88.90;;;;;;4992742;28;20421;-81
2022/08/03 05:04:13;;;;;;;11.73;5.75;;;21.40;88.30;;;;;;4974476;28;20050;-81
2022/08/03 05:06:39;;;;;;;13.40;6.00;;;21.50;88.30;;;;;;4993252;28;20042;-80
2022/08/03 05:09:05;;;;;;;11.35;5.35;;;21.50;88.20;;;;;;4995783;28;20019;-81
2022/08/03 05:11:30;;;;;;;16.75;5.55;;;21.50;88.10;;;;;;4995300;28;20149;-81
2022/08/03 05:13:56;;;;;;;14.00;5.60;;;21.60;88.10;;;;;;4991057;28;20030;-81
2022/08/03 05:16:22;;;;;;;15.18;5.45;;;21.60;87.90;;;;;;5006933;28;20018;-80
2022/08/03 05:18:48;;;;;;;11.32;5.55;;;21.60;87.80;;;;;;5004035;28;20042;-81
2022/08/03 05:21:15;;;;;;;13.63;6.00;;;21.60;87.70;;;;;;4994033;28;20137;-81
2022/08/03 05:23:40;;;;;;;13.23;6.07;;;21.60;87.70;;;;;;4992068;28;20311;-80
2022/08/03 05:26:06;;;;;;;13.63;5.70;;;21.60;87.60;;;;;;4992522;28;20034;-80
2022/08/03 05:28:33;;;;;;;13.07;6.10;;;21.70;87.30;;;;;;4989915;28;20073;-80
2022/08/03 05:30:58;;;;;;;13.18;6.38;;;21.60;87.40;;;;;;4975122;28;20429;-79
2022/08/03 05:33:24;;;;;;;14.55;7.63;;;21.70;87.70;;;;;;4991273;28;20092;-80
2022/08/03 05:35:49;;;;;;;15.25;6.20;;;21.70;87.60;;;;;;4991919;28;20022;-79
2022/08/03 05:38:15;;;;;;;13.68;6.28;;;21.70;87.40;;;;;;4991699;28;20025;-79
2022/08/03 05:40:41;;;;;;;12.00;6.60;;;21.80;87.30;;;;;;4990623;28;20032;-80
2022/08/03 05:43:06;;;;;;;13.18;5.90;;;21.80;87.00;;;;;;4992882;28;20034;-78
2022/08/03 05:45:32;;;;;;;14.45;5.95;;;21.90;86.80;;;;;;4992900;28;20101;-79
2022/08/03 05:47:57;;;;;;;14.73;6.10;;;21.90;86.20;;;;;;4975570;28;20023;-80
2022/08/03 05:50:23;;;;;;;14.10;6.80;;;21.90;86.30;;;;;;4988034;28;20062;-79
2022/08/03 05:52:49;;;;;;;16.58;6.80;;;22.00;86.10;;;;;;4992658;28;20015;-80
2022/08/03 05:55:15;;;;;;;16.75;5.93;;;22.00;86.20;;;;;;4998111;28;20047;-79
2022/08/03 05:57:41;;;;;;;15.13;6.50;;;22.10;85.80;;;;;;4972720;28;20520;-80
2022/08/03 06:00:13;;;;;;;13.98;6.28;;;22.10;85.60;;;;;;4990631;28;20022;-80
2022/08/03 06:02:38;;;;;;;14.15;5.53;;;22.10;85.00;;;;;;4990149;28;20056;-80
2022/08/03 06:05:05;;;;;;;14.50;5.93;;;22.20;84.70;;;;;;4985327;28;20030;-80
2022/08/03 06:07:31;;;;;;;13.25;6.75;;;22.20;84.10;;;;;;4977016;28;20081;-80
2022/08/03 06:09:56;;;;;;;10.27;4.32;;;22.30;84.50;;;;;;4991337;28;20666;-77
2022/08/03 06:12:22;;;;;;;12.20;5.80;;;22.30;83.90;;;;;;4990283;28;20033;-79
2022/08/03 06:14:47;;;;;;;15.80;7.25;;;22.40;82.70;;;;;;4990189;28;20149;-80
2022/08/03 06:17:13;;;;;;;10.77;5.15;;;22.50;83.20;;;;;;4992459;28;20125;-80
2022/08/03 06:19:39;;;;;;;9.55;4.75;;;22.50;83.60;;;;;;4990205;28;20015;-78
2022/08/03 06:22:05;;;;;;;11.13;5.05;;;22.50;83.40;;;;;;4988773;28;20045;-78
2022/08/03 06:24:31;;;;;;;13.20;5.57;;;22.50;82.80;;;;;;4990044;28;20054;-77
2022/08/03 06:26:57;;;;;;;13.75;5.57;;;22.50;81.40;;;;;;4989822;28;20743;-77
2022/08/03 06:29:23;;;;;;;6.43;2.28;;;22.50;83.60;;;;;;4987105;28;20030;-75
2022/08/03 06:31:49;;;;;;;11.57;4.50;;;22.50;76.90;;;;;;4989544;28;20436;-77
2022/08/03 06:34:15;;;;;;;7.53;3.80;;;22.60;81.00;;;;;;4987398;28;20043;-76
2022/08/03 06:36:40;;;;;;;10.88;3.92;;;22.60;81.70;;;;;;4987206;28;20118;-77
2022/08/03 06:39:06;;;;;;;9.50;3.78;;;22.60;81.20;;;;;;4986756;28;20023;-76
2022/08/03 06:41:32;;;;;;;11.38;4.45;;;22.70;81.00;;;;;;4984776;28;20555;-76
2022/08/03 06:43:58;;;;;;;16.73;5.25;;;22.80;79.40;;;;;;4993122;28;20030;-77
2022/08/03 06:46:24;;;;;;;11.63;5.65;;;22.90;80.00;;;;;;4992692;28;20096;-75
2022/08/03 06:48:49;;;;;;;14.90;5.18;;;23.00;80.10;;;;;;4998690;28;20033;-77
2022/08/03 06:51:15;;;;;;;15.00;5.40;;;23.00;80.70;;;;;;4989921;28;20026;-76
2022/08/03 06:53:41;;;;;;;16.40;6.70;;;22.90;80.80;;;;;;4990817;28;20515;-76
2022/08/03 06:56:07;;;;;;;13.02;4.32;;;22.90;80.40;;;;;;4986856;28;20025;-77
2022/08/03 06:58:34;;;;;;;11.98;4.53;;;23.00;80.40;;;;;;4972796;28;20170;-77
2022/08/03 07:01:00;;;;;;;13.20;4.35;;;23.10;80.60;;;;;;4990659;28;20022;-77
2022/08/03 07:03:26;;;;;;;14.38;4.72;;;23.20;80.30;;;;;;4988196;28;20135;-76
2022/08/03 07:05:51;;;;;;;15.65;5.80;;;23.30;79.50;;;;;;4988829;28;20055;-75
2022/08/03 07:08:17;;;;;;;13.35;4.43;;;23.40;78.70;;;;;;4991032;28;20030;-77
2022/08/03 07:10:44;;;;;;;8.90;3.03;;;23.40;77.80;;;;;;4982956;28;20021;-78
2022/08/03 07:13:12;;;;;;;16.05;4.30;;;23.50;76.20;;;;;;4991039;28;20023;-77
2022/08/03 07:15:39;;;;;;;12.27;4.90;;;23.50;78.70;;;;;;4987405;28;20031;-78
2022/08/03 07:18:05;;;;;;;16.45;3.90;;;23.60;78.50;;;;;;4985307;28;20064;-78
2022/08/03 07:20:31;;;;;;;12.95;4.97;;;23.70;77.20;;;;;;4992063;28;20018;-78
2022/08/03 07:22:58;;;;;;;10.75;3.22;;;23.80;76.60;;;;;;4991168;28;20469;-77
2022/08/03 07:25:24;;;;;;;14.02;4.00;;;23.90;76.30;;;;;;4992241;28;20026;-76
2022/08/03 07:27:49;;;;;;;15.77;3.88;;;24.00;75.40;;;;;;4992603;28;20385;-77
2022/08/03 07:30:16;;;;;;;19.38;4.82;;;24.10;74.30;;;;;;4990434;28;20014;-77
2022/08/03 07:32:41;;;;;;;15.63;3.50;;;24.20;74.00;;;;;;4975313;28;20074;-76
2022/08/03 07:35:08;;;;;;;11.38;2.90;;;24.30;72.90;;;;;;4973937;28;20745;-74
2022/08/03 07:37:34;;;;;;;11.63;3.53;;;24.30;72.30;;;;;;4989320;28;20034;-77
2022/08/03 07:40:00;;;;;;;12.70;3.33;;;24.30;73.30;;;;;;4986308;28;20022;-77
2022/08/03 07:42:27;;;;;;;18.08;3.97;;;24.40;72.90;;;;;;4991737;28;20032;-75
2022/08/03 07:44:53;;;;;;;13.85;3.25;;;24.50;72.20;;;;;;4991410;28;20026;-78
2022/08/03 07:47:22;;;;;;;14.85;3.50;;;24.70;71.50;;;;;;4991158;28;20080;-77
2022/08/03 07:49:48;;;;;;;13.50;3.75;;;24.80;72.10;;;;;;4991712;28;20022;-77
2022/08/03 07:54:58;;;;;;;11.88;2.63;;;24.90;70.60;;;;;;4992717;28;20104;-78
2022/08/03 07:57:24;;;;;;;13.25;3.25;;;24.90;70.40;;;;;;4991827;28;20026;-76
2022/08/03 07:59:49;;;;;;;7.85;2.65;;;25.00;71.10;;;;;;4990417;28;21260;-77
2022/08/03 08:02:15;;;;;;;15.40;3.47;;;25.10;70.40;;;;;;4990555;28;20030;-75
2022/08/03 08:04:40;;;;;;;15.82;3.58;;;25.40;69.00;;;;;;4974578;28;20503;-78
2022/08/03 08:07:07;;;;;;;11.43;2.95;;;25.50;70.30;;;;;;4993697;28;20165;-77
2022/08/03 08:09:33;;;;;;;11.00;2.60;;;25.50;69.80;;;;;;4990164;28;20061;-77
2022/08/03 08:11:58;;;;;;;9.13;2.10;;;25.60;68.10;;;;;;4987194;28;20105;-77
2022/08/03 08:14:24;;;;;;;18.75;4.10;;;25.60;68.70;;;;;;4989059;28;20560;-78
2022/08/03 08:16:50;;;;;;;11.55;2.88;;;25.80;67.80;;;;;;4989267;28;20022;-78
2022/08/03 08:19:16;;;;;;;11.25;2.55;;;25.90;68.20;;;;;;4967085;28;20023;-78
2022/08/03 08:21:43;;;;;;;10.38;2.42;;;26.10;67.80;;;;;;4989634;28;20046;-76
2022/08/03 08:24:09;;;;;;;12.98;2.75;;;26.20;67.00;;;;;;4987486;28;20023;-78
2022/08/03 08:26:35;;;;;;;12.65;3.22;;;26.30;66.90;;;;;;4987999;28;20504;-75
2022/08/03 08:29:02;;;;;;;12.65;3.25;;;26.50;66.00;;;;;;4991105;28;20035;-77
2022/08/03 08:31:27;;;;;;;16.90;3.25;;;26.50;66.10;;;;;;4991786;28;20368;-78
2022/08/03 08:33:53;;;;;;;14.73;3.42;;;26.60;66.40;;;;;;4990332;28;20056;-77
2022/08/03 08:36:19;;;;;;;12.68;3.05;;;26.70;64.60;;;;;;4994088;28;20514;-78
2022/08/03 08:38:45;;;;;;;12.45;3.10;;;27.00;64.70;;;;;;4998680;28;20053;-78
2022/08/03 08:41:11;;;;;;;16.88;3.40;;;27.10;63.90;;;;;;4993388;28;20030;-77
2022/08/03 08:43:37;;;;;;;11.05;2.83;;;27.10;63.70;;;;;;4992984;28;20030;-76
2022/08/03 08:46:06;;;;;;;6.68;1.90;;;27.10;63.60;;;;;;5006481;28;20034;-78
2022/08/03 08:48:34;;;;;;;15.15;3.28;;;27.10;63.10;;;;;;4984972;28;20488;-78
2022/08/03 08:51:02;;;;;;;17.08;3.35;;;27.10;63.90;;;;;;5014747;28;20158;-78
2022/08/03 08:53:31;;;;;;;9.20;3.05;;;27.10;63.50;;;;;;5003187;28;20044;-78
2022/08/03 08:55:59;;;;;;;11.52;2.22;;;27.30;62.90;;;;;;4997147;28;20069;-75
2022/08/03 08:58:27;;;;;;;11.27;2.90;;;27.50;62.20;;;;;;4987637;28;20076;-78
2022/08/03 09:00:55;;;;;;;13.57;2.92;;;27.60;61.90;;;;;;4971328;28;20117;-78
2022/08/03 09:03:21;;;;;;;12.82;2.80;;;27.70;61.30;;;;;;4993053;28;20082;-78
2022/08/03 09:05:47;;;;;;;9.95;2.53;;;27.90;61.00;;;;;;4988191;28;20054;-76
2022/08/03 09:08:13;;;;;;;18.77;2.97;;;28.00;60.40;;;;;;4970741;28;20018;-78
2022/08/03 09:10:39;;;;;;;16.40;3.47;;;28.00;60.50;;;;;;4987088;28;20485;-75
2022/08/03 09:13:06;;;;;;;9.05;2.55;;;28.00;60.30;;;;;;4985930;28;20441;-75
2022/08/03 09:15:32;;;;;;;10.57;2.28;;;28.10;60.50;;;;;;4969228;28;20077;-76
2022/08/03 09:18:02;;;;;;;12.77;3.08;;;28.20;60.40;;;;;;4967616;28;20014;-76
2022/08/03 09:20:30;;;;;;;20.70;4.20;;;28.30;60.10;;;;;;4985126;28;20378;-77
2022/08/03 09:22:59;;;;;;;12.68;2.40;;;28.40;57.90;;;;;;4985876;28;20033;-79
2022/08/03 09:25:29;;;;;;;12.88;2.38;;;28.50;58.70;;;;;;4986886;28;20104;-79
2022/08/03 09:28:05;;;;;;;15.55;2.70;;;28.60;57.20;;;;;;4983893;28;20026;-76
2022/08/03 09:30:31;;;;;;;13.65;3.13;;;28.70;57.30;;;;;;4981945;28;20690;-79
2022/08/03 09:33:06;;;;;;;21.45;4.65;;;28.90;56.90;;;;;;4986045;28;20105;-81
2022/08/03 09:35:41;;;;;;;21.85;4.00;;;28.80;56.80;;;;;;4986281;28;20065;-82
2022/08/03 09:38:18;;;;;;;16.38;3.65;;;29.00;56.90;;;;;;4986220;28;20035;-77
2022/08/03 09:40:45;;;;;;;17.67;3.63;;;29.10;56.00;;;;;;4986443;28;20484;-81
2022/08/03 09:43:11;;;;;;;11.63;3.10;;;29.10;56.00;;;;;;4986721;28;20057;-77
2022/08/03 09:45:38;;;;;;;14.52;3.70;;;29.10;56.80;;;;;;4963548;28;20133;-80
2022/08/03 09:48:28;;;;;;;19.75;4.60;;;29.40;56.20;;;;;;4984415;28;20038;-77
2022/08/03 09:51:03;;;;;;;11.63;2.83;;;29.50;56.40;;;;;;4983766;28;20030;-79
2022/08/03 09:53:30;;;;;;;12.85;2.72;;;29.60;55.40;;;;;;4987902;28;20481;-76
2022/08/03 09:55:59;;;;;;;17.27;3.63;;;29.80;55.20;;;;;;4990313;28;20029;-78
2022/08/03 09:58:26;;;;;;;15.95;3.20;;;30.00;54.10;;;;;;4970614;28;20038;-78
2022/08/03 10:00:59;;;;;;;17.10;3.30;;;30.10;53.60;;;;;;4989309;28;20086;-81
2022/08/03 10:03:27;;;;;;;11.88;2.53;;;30.30;54.00;;;;;;4970341;28;20046;-78
2022/08/03 10:05:56;;;;;;;16.63;2.85;;;30.20;53.50;;;;;;4973667;28;20026;-82
2022/08/03 10:08:22;;;;;;;15.07;3.03;;;30.20;54.10;;;;;;4987565;28;20026;-79
2022/08/03 10:10:49;;;;;;;11.35;2.95;;;30.20;53.40;;;;;;4986717;28;20054;-78
2022/08/03 10:13:17;;;;;;;14.60;3.03;;;30.20;53.80;;;;;;4987507;28;20030;-80
2022/08/03 10:15:43;;;;;;;21.48;3.33;;;30.30;54.90;;;;;;4986029;28;21487;-79
2022/08/03 10:18:12;;;;;;;18.40;3.25;;;30.30;54.90;;;;;;4988279;28;20026;-75
2022/08/03 10:20:55;;;;;;;16.80;4.00;;;30.30;53.70;;;;;;4984047;28;20161;-76
2022/08/03 10:23:21;;;;;;;15.35;3.30;;;30.30;53.40;;;;;;4985405;28;20465;-79
2022/08/03 10:25:51;;;;;;;15.30;3.10;;;30.30;53.40;;;;;;4986637;28;20031;-79
2022/08/03 10:28:20;;;;;;;13.93;3.20;;;30.40;54.10;;;;;;4984090;28;20026;-81
2022/08/03 10:30:49;;;;;;;14.07;2.90;;;30.40;53.60;;;;;;4969693;28;20030;-85
2022/08/03 10:33:21;;;;;;;16.70;3.00;;;30.30;54.30;;;;;;4984525;28;20023;-78
2022/08/03 10:35:51;;;;;;;12.70;2.95;;;30.40;53.40;;;;;;4985659;28;20034;-80
2022/08/03 10:38:25;;;;;;;14.23;3.50;;;30.50;52.30;;;;;;4982983;28;20060;-79
2022/08/03 10:40:54;;;;;;;16.52;3.15;;;30.40;51.40;;;;;;4984374;28;20482;-77
2022/08/03 10:43:26;;;;;;;12.68;2.83;;;30.60;52.30;;;;;;4982854;28;20046;-80
2022/08/03 10:45:52;;;;;;;16.80;3.20;;;30.80;51.30;;;;;;4967972;28;20101;-79
2022/08/03 10:48:19;;;;;;;18.50;4.18;;;31.10;51.50;;;;;;4985645;28;20552;-82
2022/08/03 10:50:47;;;;;;;11.35;2.95;;;31.10;51.00;;;;;;4985656;28;20053;-78
2022/08/03 10:53:12;;;;;;;14.35;3.03;;;31.10;50.60;;;;;;4966101;28;20040;-78
2022/08/03 10:58:46;;;;;;;12.75;2.75;;;31.50;51.60;;;;;;4984727;28;20424;-79
2022/08/03 11:01:12;;;;;;;19.00;3.63;;;31.70;51.00;;;;;;4965439;28;20038;-80
2022/08/03 11:03:53;;;;;;;15.02;3.47;;;31.90;49.10;;;;;;4985357;28;20049;-82
2022/08/03 11:06:21;;;;;;;9.02;2.30;;;31.90;48.50;;;;;;4975741;28;20429;-76
2022/08/03 11:08:49;;;;;;;18.13;3.05;;;31.80;49.60;;;;;;4982649;28;20100;-79
2022/08/03 11:11:17;;;;;;;10.45;2.20;;;31.80;49.20;;;;;;4982972;28;20041;-77
2022/08/03 11:14:03;;;;;;;12.82;2.45;;;31.80;49.80;;;;;;4989489;28;20105;-83
2022/08/03 11:16:33;;;;;;;14.55;2.75;;;31.90;50.30;;;;;;4988008;28;20038;-75
2022/08/03 11:19:01;;;;;;;14.38;3.45;;;32.10;51.60;;;;;;4986829;28;20393;-80
2022/08/03 11:21:52;;;;;;;9.88;2.55;;;32.20;50.10;;;;;;4989547;28;20037;-79
2022/08/03 11:24:46;;;;;;;14.57;3.22;;;32.40;49.40;;;;;;4972641;28;20125;-79
2022/08/03 11:27:18;;;;;;;12.70;3.38;;;32.50;49.10;;;;;;4960911;28;20038;-76
2022/08/03 11:30:06;;;;;;;10.93;2.40;;;32.50;48.70;;;;;;4987905;28;20464;-76
2022/08/03 11:32:41;;;;;;;11.80;2.28;;;32.40;46.90;;;;;;4988307;28;20026;-74
2022/08/03 11:35:14;;;;;;;11.82;3.28;;;32.40;50.10;;;;;;4988331;28;20186;-74
2022/08/03 11:37:59;;;;;;;10.82;2.92;;;32.50;48.30;;;;;;4986175;28;20031;-74
2022/08/03 11:40:52;;;;;;;11.90;2.63;;;32.80;48.60;;;;;;4986377;28;20027;-75
2022/08/03 11:43:21;;;;;;;9.68;2.47;;;32.80;48.00;;;;;;4988002;28;20030;-77
2022/08/03 11:46:00;;;;;;;12.27;2.58;;;32.80;48.30;;;;;;4989704;28;20037;-78
2022/08/03 11:48:36;;;;;;;10.02;2.65;;;32.90;46.30;;;;;;4983858;28;20025;-78
2022/08/03 11:51:04;;;;;;;11.07;2.17;;;33.00;46.20;;;;;;4986332;28;20029;-78
2022/08/03 11:53:30;;;;;;;7.97;2.03;;;33.20;44.40;;;;;;4996584;28;20041;-76
2022/08/03 11:56:01;;;;;;;15.68;3.40;;;33.30;46.30;;;;;;4994511;28;20042;-76
2022/08/03 11:58:27;;;;;;;16.55;2.90;;;33.40;43.60;;;;;;5001254;28;20026;-77
2022/08/03 12:01:04;;;;;;;11.93;2.70;;;33.40;42.60;;;;;;4993474;28;20053;-76
2022/08/03 12:03:33;;;;;;;6.38;1.30;;;33.40;44.20;;;;;;5006076;28;20124;-78
2022/08/03 12:06:03;;;;;;;15.68;2.92;;;33.50;46.20;;;;;;5006774;28;20038;-76
2022/08/03 12:08:33;;;;;;;9.80;2.45;;;33.60;43.20;;;;;;4997531;28;20053;-77
2022/08/03 12:11:00;;;;;;;;;;;33.70;44.60;;;;;;4994136;28;20032;-71
2022/08/03 12:13:26;;;;;;;17.95;3.35;;;33.70;45.60;;;;;;4990749;28;20584;-74
2022/08/03 12:15:57;;;;;;;10.77;2.75;;;33.70;44.00;;;;;;5003279;28;20030;-75
2022/08/03 12:18:24;;;;;;;12.02;2.38;;;33.90;44.50;;;;;;4995738;28;20022;-75
2022/08/03 12:20:51;;;;;;;13.55;2.72;;;33.90;43.20;;;;;;4980958;28;20026;-73
2022/08/03 12:23:19;;;;;;;14.68;3.50;;;33.90;43.40;;;;;;4983565;28;20137;-71
2022/08/03 12:25:45;;;;;;;14.00;3.38;;;33.90;41.60;;;;;;4983460;28;20204;-73
2022/08/03 12:28:18;;;;;;;18.50;3.45;;;34.00;41.60;;;;;;4981795;28;20381;-73
2022/08/03 12:30:46;;;;;;;12.40;3.03;;;33.90;41.50;;;;;;4983341;28;20030;-77
2022/08/03 12:33:19;;;;;;;9.73;2.40;;;33.70;42.50;;;;;;4981829;28;20038;-72
2022/08/03 12:35:46;;;;;;;8.57;2.17;;;33.70;41.30;;;;;;4981794;28;20385;-73
2022/08/03 12:38:12;;;;;;;10.95;2.67;;;33.70;41.20;;;;;;4982055;28;20061;-80
2022/08/03 12:40:38;;;;;;;15.48;2.53;;;33.60;39.90;;;;;;4983353;28;20061;-76
2022/08/03 12:43:12;;;;;;;11.38;2.88;;;33.70;40.80;;;;;;4983260;28;20022;-78
2022/08/03 12:45:38;;;;;;;8.27;2.13;;;33.70;40.50;;;;;;4969122;28;20097;-77
2022/08/03 12:48:09;;;;;;;12.20;2.22;;;33.70;45.10;;;;;;4986410;28;20030;-79
2022/08/03 12:50:36;;;;;;;10.85;2.42;;;33.70;43.10;;;;;;4980885;28;20380;-76
2022/08/03 12:53:06;;;;;;;8.18;1.88;;;33.70;41.70;;;;;;4982825;28;20445;-77
2022/08/03 12:55:32;;;;;;;8.68;2.05;;;33.70;43.30;;;;;;4982377;28;20101;-73
2022/08/03 12:58:09;;;;;;;6.80;1.88;;;33.80;40.40;;;;;;4978909;28;20503;-77